This is the latest recevied weather packets stored in our database for station/object SP3WRO-13. If no packets are shown the sender has not sent any weather packets the latest 10 day(s).
| Time | Temp. | Humidity | Pressure | Rain* | Wind** | Luminosity | Snow |
|---|---|---|---|---|---|---|---|
| 1777429734 | -2.22° C | 82% | 1025.4 hPa | - | - | - | - |
| 1777428834 | -2.22° C | 81% | 1025.2 hPa | - | - | - | - |
| 1777427934 | -1.67° C | 81% | 1025.2 hPa | - | - | - | - |
| 1777427034 | -1.67° C | 80% | 1025.1 hPa | - | - | - | - |
| 1777426134 | -1.67° C | 80% | 1025 hPa | - | - | - | - |
| 1777425234 | -1.67° C | 79% | 1024.9 hPa | - | - | - | - |
| 1777424333 | -1.11° C | 78% | 1024.8 hPa | - | - | - | - |
| 1777423433 | -0.56° C | 78% | 1024.7 hPa | - | - | - | - |
| 1777422533 | 0° C | 76% | 1024.7 hPa | - | - | - | - |
| 1777421633 | 0.56° C | 74% | 1024.6 hPa | - | - | - | - |
| 1777420733 | 0.56° C | 74% | 1024.6 hPa | - | - | - | - |
| 1777419833 | 1.11° C | 73% | 1024.5 hPa | - | - | - | - |
| 1777418933 | 2.22° C | 70% | 1024.4 hPa | - | - | - | - |
| 1777418033 | 3.33° C | 61% | 1024.3 hPa | - | - | - | - |
| 1777417133 | 3.89° C | 58% | 1024.2 hPa | - | - | - | - |
| 1777416233 | 3.89° C | 59% | 1024.1 hPa | - | - | - | - |
| 1777415333 | 4.44° C | 55% | 1023.9 hPa | - | - | - | - |
| 1777414433 | 5.56° C | 52% | 1023.8 hPa | - | - | - | - |
| 1777413532 | 5.56° C | 52% | 1023.7 hPa | - | - | - | - |
| 1777412633 | 5.56° C | 54% | 1023.5 hPa | - | - | - | - |
| 1777411732 | 5.56° C | 54% | 1023.4 hPa | - | - | - | - |
| 1777410832 | 5° C | 57% | 1023.2 hPa | - | - | - | - |
| 1777409932 | 6.67° C | 51% | 1023 hPa | - | - | - | - |
| 1777409032 | 7.22° C | 47% | 1022.8 hPa | - | - | - | - |
| 1777408132 | 7.78° C | 45% | 1022.6 hPa | - | - | - | - |
* Rain since midnight (hover to see other rain measurements)
** Current wind speed in m/s (hover to see current wind gust speed)